Time;durP1;ratioP1;P1;durP2;ratioP2;P2;SDS_P1;SDS_P2;PMS_P1;PMS_P2;Temp;Humidity;BMP_temperature;BMP_pressure;BME280_temperature;BME280_humidity;BME280_pressure;Samples;Min_cycle;Max_cycle;Signal;HPM_P1;HPM_P2
2021/11/23 00:00:37;;;;;;;6.58;4.30;;;;;;;14.85;58.55;99999.96;1707194;82;21026;-60
2021/11/23 00:03:05;;;;;;;5.92;4.20;;;;;;;14.84;58.51;99998.32;1726381;81;21144;-58
2021/11/23 00:05:33;;;;;;;5.10;3.37;;;;;;;14.84;58.48;99999.66;1686521;82;21045;-58
2021/11/23 00:08:00;;;;;;;6.00;3.85;;;;;;;14.83;58.46;99998.81;1711408;82;21033;-58
2021/11/23 00:10:26;;;;;;;4.58;3.40;;;;;;;14.82;58.42;100001.70;1694813;82;21026;-59
2021/11/23 00:12:54;;;;;;;5.20;3.50;;;;;;;14.81;58.41;100003.52;1685143;82;21032;-59
2021/11/23 00:15:20;;;;;;;4.05;3.50;;;;;;;14.80;58.37;100009.91;1723290;82;21064;-57
2021/11/23 00:17:47;;;;;;;4.35;3.20;;;;;;;14.79;58.31;100012.24;1719375;81;21078;-58
2021/11/23 00:20:13;;;;;;;4.20;3.35;;;;;;;14.79;58.30;100014.92;1728765;81;21049;-59
2021/11/23 00:22:41;;;;;;;6.42;4.22;;;;;;;14.78;58.26;100012.45;1720683;81;21019;-58
2021/11/23 00:25:09;;;;;;;4.70;3.58;;;;;;;14.79;58.23;100011.42;1692517;82;21619;-57
2021/11/23 00:27:35;;;;;;;5.47;3.33;;;;;;;14.77;58.19;100008.94;1723536;82;21120;-59
2021/11/23 00:30:02;;;;;;;4.53;3.25;;;;;;;14.75;58.17;100006.95;1687654;82;21509;-57
2021/11/23 00:32:29;;;;;;;3.58;3.00;;;;;;;14.75;58.11;100015.80;1696345;82;21041;-60
2021/11/23 00:34:56;;;;;;;4.90;3.15;;;;;;;14.75;58.06;100020.33;1692629;82;21037;-58
2021/11/23 00:37:23;;;;;;;5.10;3.30;;;;;;;14.74;58.01;100023.52;1698866;82;21044;-57
2021/11/23 00:39:51;;;;;;;4.17;2.85;;;;;;;14.72;57.99;100026.89;1701435;82;21146;-57
2021/11/23 00:42:18;;;;;;;4.55;3.25;;;;;;;14.73;57.94;100031.72;1694751;82;21033;-58
2021/11/23 00:44:45;;;;;;;3.80;2.80;;;;;;;14.73;57.93;100030.39;1707551;82;21054;-58
2021/11/23 00:47:11;;;;;;;4.10;3.05;;;;;;;14.71;57.92;100015.86;1713588;82;21072;-58
2021/11/23 00:49:38;;;;;;;3.08;2.60;;;;;;;14.71;57.87;100016.37;1700051;82;21122;-59
2021/11/23 00:52:06;;;;;;;3.77;2.87;;;;;;;14.70;57.82;100021.42;1745061;81;21081;-59
2021/11/23 00:54:33;;;;;;;4.28;2.77;;;;;;;14.70;57.81;100024.92;1743035;80;21032;-58
2021/11/23 00:57:00;;;;;;;3.90;2.92;;;;;;;14.69;57.77;100025.92;1730548;82;21545;-57
2021/11/23 00:59:26;;;;;;;3.87;3.10;;;;;;;14.68;57.79;100024.28;1732807;82;21069;-58
2021/11/23 01:01:53;;;;;;;5.50;3.35;;;;;;;14.68;57.75;100027.44;1749288;82;21119;-58
2021/11/23 01:04:20;;;;;;;3.27;2.40;;;;;;;14.66;57.72;100031.66;1735044;81;21150;-57
2021/11/23 01:06:49;;;;;;;5.08;3.27;;;;;;;14.66;57.71;100038.34;1742883;82;20983;-58
2021/11/23 01:09:16;;;;;;;3.70;2.90;;;;;;;14.65;57.67;100038.01;1711036;82;21596;-58
2021/11/23 01:11:43;;;;;;;4.17;2.85;;;;;;;14.64;57.70;100045.73;1691701;82;21486;-58
2021/11/23 01:14:09;;;;;;;4.42;2.55;;;;;;;14.64;57.67;100043.05;1697800;82;21519;-58
2021/11/23 01:16:37;;;;;;;4.60;3.02;;;;;;;14.63;57.67;100044.05;1702491;82;21520;-59
2021/11/23 01:19:04;;;;;;;3.55;2.87;;;;;;;14.63;57.68;100041.90;1734355;81;21049;-57
2021/11/23 01:21:31;;;;;;;3.83;2.77;;;;;;;14.61;57.69;100031.91;1744375;81;21005;-58
2021/11/23 01:23:57;;;;;;;3.77;2.92;;;;;;;14.61;57.69;100036.73;1743144;81;21044;-57
2021/11/23 01:26:24;;;;;;;4.00;2.95;;;;;;;14.60;57.69;100033.72;1744395;82;21003;-58
2021/11/23 01:28:52;;;;;;;3.92;3.20;;;;;;;14.58;57.67;100030.41;1740231;81;21591;-59
2021/11/23 01:31:18;;;;;;;3.83;2.90;;;;;;;14.58;57.67;100031.74;1725907;82;21009;-57
2021/11/23 01:33:45;;;;;;;5.75;3.45;;;;;;;14.57;57.67;100038.64;1727702;81;21319;-57
2021/11/23 01:36:11;;;;;;;4.25;3.10;;;;;;;14.56;57.64;100043.11;1721649;81;21078;-57
2021/11/23 01:38:40;;;;;;;4.50;3.45;;;;;;;14.55;57.62;100044.95;1724453;81;21035;-58
2021/11/23 01:41:08;;;;;;;5.65;3.70;;;;;;;14.55;57.61;100045.47;1740933;82;21345;-58
2021/11/23 01:43:35;;;;;;;5.00;3.35;;;;;;;14.53;57.59;100052.34;1718738;82;21041;-59
2021/11/23 01:46:02;;;;;;;4.22;3.15;;;;;;;14.53;57.54;100051.52;1720464;82;21053;-59
2021/11/23 01:48:28;;;;;;;3.87;3.10;;;;;;;14.52;57.52;100057.34;1732591;81;21018;-58
2021/11/23 01:50:57;;;;;;;5.45;3.92;;;;;;;14.52;57.48;100056.53;1728023;81;21096;-58
2021/11/23 01:53:23;;;;;;;9.13;4.78;;;;;;;14.52;57.47;100061.88;1734472;81;21011;-58
2021/11/23 01:55:51;;;;;;;4.87;3.58;;;;;;;14.50;57.41;100055.37;1678755;82;21567;-57
2021/11/23 01:58:18;;;;;;;5.00;3.55;;;;;;;14.49;57.37;100053.73;1695071;82;21573;-58
2021/11/23 02:00:47;;;;;;;6.00;3.90;;;;;;;14.48;57.37;100049.38;1709957;82;20994;-59
2021/11/23 02:03:14;;;;;;;5.03;3.52;;;;;;;14.48;57.34;100047.23;1718512;82;21095;-58
2021/11/23 02:05:41;;;;;;;6.10;3.98;;;;;;;14.47;57.32;100050.93;1727294;82;21149;-58
2021/11/23 02:08:07;;;;;;;4.67;3.72;;;;;;;14.46;57.32;100051.41;1721578;82;21197;-58
2021/11/23 02:10:35;;;;;;;4.87;3.70;;;;;;;14.46;57.32;100045.25;1733888;81;21050;-58
2021/11/23 02:13:02;;;;;;;5.33;3.80;;;;;;;14.45;57.30;100053.78;1724389;82;21054;-58
2021/11/23 02:15:28;;;;;;;4.75;3.95;;;;;;;14.44;57.30;100054.78;1738231;80;21029;-59
2021/11/23 02:17:55;;;;;;;5.80;3.98;;;;;;;14.43;57.27;100049.13;1705930;82;21668;-58
2021/11/23 02:20:23;;;;;;;5.42;3.27;;;;;;;14.43;57.22;100048.28;1697512;82;21584;-57
2021/11/23 02:22:50;;;;;;;4.42;3.70;;;;;;;14.42;57.20;100046.12;1680699;82;21064;-58
2021/11/23 02:25:17;;;;;;;4.70;3.50;;;;;;;14.42;57.17;100045.30;1738913;81;21007;-58
2021/11/23 02:27:46;;;;;;;4.85;3.62;;;;;;;14.40;57.15;100056.17;1712425;81;21500;-58
2021/11/23 02:30:13;;;;;;;5.40;3.52;;;;;;;14.40;57.11;100052.16;1714853;82;21802;-59
2021/11/23 02:32:53;;;;;;;5.45;3.42;;;;;;;14.39;57.10;100053.19;1725132;82;21628;-60
2021/11/23 02:35:23;;;;;;;4.78;2.98;;;;;;;14.38;57.06;100049.36;1735074;81;21524;-57
2021/11/23 02:37:53;;;;;;;4.42;3.33;;;;;;;14.36;57.08;100050.36;1747095;81;21096;-57
2021/11/23 02:40:21;;;;;;;5.22;3.05;;;;;;;14.35;57.05;100055.41;1751947;81;21537;-59
2021/11/23 02:42:47;;;;;;;4.62;3.20;;;;;;;14.35;57.04;100057.22;1746988;81;21506;-57
2021/11/23 02:45:17;;;;;;;4.25;3.47;;;;;;;14.34;57.03;100063.08;1714964;82;21131;-57
2021/11/23 02:48:48;;;;;;;4.62;3.20;;;;;;;14.38;57.00;100057.37;1874668;75;28514;-58
2021/11/23 02:51:15;;;;;;;3.50;2.92;;;;;;;14.33;56.97;100060.59;1838499;77;20925;-58
2021/11/23 02:53:46;;;;;;;3.58;3.20;;;;;;;14.32;56.92;100063.77;1835473;77;21111;-58
2021/11/23 02:56:13;;;;;;;3.95;3.20;;;;;;;14.33;56.90;100064.59;1837748;77;20898;-58
2021/11/23 02:58:40;;;;;;;3.95;3.15;;;;;;;14.31;56.86;100062.13;1844054;77;21072;-59
2021/11/23 03:01:09;;;;;;;5.37;3.70;;;;;;;14.30;56.85;100060.46;1835427;77;20937;-59
2021/11/23 03:03:36;;;;;;;5.42;3.52;;;;;;;14.30;56.78;100060.98;1830337;77;21128;-58
2021/11/23 03:06:03;;;;;;;4.58;3.37;;;;;;;14.29;56.76;100060.16;1809961;77;21137;-58
2021/11/23 03:08:31;;;;;;;4.03;3.37;;;;;;;14.28;56.74;100054.98;1833591;77;20970;-59
2021/11/23 03:10:58;;;;;;;4.30;3.72;;;;;;;14.28;56.72;100059.81;1824826;77;20997;-59
2021/11/23 03:13:24;;;;;;;5.55;3.75;;;;;;;14.28;56.66;100054.98;1838608;77;21560;-57
2021/11/23 03:15:51;;;;;;;4.50;3.60;;;;;;;14.27;56.63;100055.98;1834168;77;21497;-58
2021/11/23 03:18:17;;;;;;;4.70;3.77;;;;;;;14.26;56.63;100057.02;1830636;77;21830;-58
2021/11/23 03:20:45;;;;;;;4.72;3.37;;;;;;;14.25;56.61;100062.84;1831989;77;21536;-58
2021/11/23 03:23:12;;;;;;;5.08;3.52;;;;;;;14.24;56.58;100067.88;1846365;77;21047;-57
2021/11/23 03:25:39;;;;;;;4.65;3.62;;;;;;;14.24;56.54;100070.55;1829581;77;21041;-58
2021/11/23 03:28:06;;;;;;;4.20;3.72;;;;;;;14.22;56.50;100064.57;1831599;77;21012;-57
2021/11/23 03:30:33;;;;;;;5.83;4.03;;;;;;;14.21;56.50;100062.89;1843897;77;21130;-56
2021/11/23 03:33:01;;;;;;;4.80;3.75;;;;;;;14.21;56.43;100069.58;1852737;77;21060;-57
2021/11/23 03:35:29;;;;;;;5.55;3.75;;;;;;;14.20;56.39;100065.75;1829386;77;21019;-58
2021/11/23 03:37:57;;;;;;;5.58;4.30;;;;;;;14.19;56.35;100063.59;1852801;77;21565;-57
2021/11/23 03:40:25;;;;;;;5.90;4.28;;;;;;;14.19;56.30;100062.77;1840416;77;21552;-58
2021/11/23 03:42:52;;;;;;;5.53;3.27;;;;;;;14.17;56.29;100064.28;1848813;77;21088;-59
2021/11/23 03:45:18;;;;;;;4.03;3.60;;;;;;;14.17;56.27;100061.61;1846091;76;21060;-58
2021/11/23 03:47:45;;;;;;;5.20;4.33;;;;;;;14.16;56.25;100061.30;1835949;77;20979;-58
2021/11/23 03:50:12;;;;;;;5.40;4.05;;;;;;;14.13;56.21;100058.98;1833994;77;21691;-58
2021/11/23 03:52:39;;;;;;;7.08;4.25;;;;;;;14.14;56.15;100057.98;1819042;78;21022;-58
2021/11/23 03:55:07;;;;;;;5.33;4.40;;;;;;;14.13;56.14;100055.80;1820739;77;21706;-58
2021/11/23 03:57:34;;;;;;;5.37;3.77;;;;;;;14.12;56.12;100058.68;1810947;78;21025;-59
2021/11/23 04:00:01;;;;;;;4.97;4.00;;;;;;;14.11;56.10;100061.83;1746437;81;21570;-58
2021/11/23 04:02:29;;;;;;;6.05;4.17;;;;;;;14.11;56.09;100057.00;1814802;78;21034;-58
2021/11/23 04:04:55;;;;;;;4.80;4.08;;;;;;;14.10;56.08;100053.52;1819371;78;21570;-57
2021/11/23 04:07:22;;;;;;;5.67;3.98;;;;;;;14.09;56.03;100051.02;1814241;78;21013;-57
2021/11/23 04:09:48;;;;;;;6.60;4.25;;;;;;;14.09;56.00;100051.02;1773609;80;21014;-57
2021/11/23 04:12:17;;;;;;;4.65;3.70;;;;;;;14.08;55.99;100052.02;1814380;78;20973;-58
2021/11/23 04:14:44;;;;;;;5.45;4.50;;;;;;;14.09;55.97;100052.35;1794699;78;21094;-58
2021/11/23 04:17:10;;;;;;;6.22;5.00;;;;;;;14.07;55.97;100046.37;1815157;78;21482;-58
2021/11/23 04:19:37;;;;;;;5.97;5.10;;;;;;;14.06;55.93;100046.87;1812156;78;21866;-58
2021/11/23 04:22:05;;;;;;;5.53;5.03;;;;;;;14.06;55.92;100049.55;1809976;78;20986;-58
2021/11/23 04:24:31;;;;;;;5.97;5.08;;;;;;;14.05;55.93;100045.72;1813422;78;21042;-58
2021/11/23 04:26:58;;;;;;;5.37;4.62;;;;;;;14.06;55.93;100046.03;1813579;78;21128;-59
2021/11/23 04:29:25;;;;;;;5.50;4.90;;;;;;;14.04;55.95;100041.38;1812762;78;21487;-57
2021/11/23 04:31:51;;;;;;;5.97;5.20;;;;;;;14.05;55.98;100045.72;1808640;78;21077;-58
2021/11/23 04:34:19;;;;;;;5.80;4.90;;;;;;;14.04;56.01;100042.72;1808175;78;21027;-58
2021/11/23 04:36:46;;;;;;;7.25;5.30;;;;;;;14.04;56.04;100048.91;1801151;78;21484;-59
2021/11/23 04:39:14;;;;;;;4.70;3.87;;;;;;;14.04;56.08;100046.72;1817518;78;21098;-58
2021/11/23 04:41:41;;;;;;;6.08;4.35;;;;;;;14.02;56.09;100033.54;1814388;78;21113;-58
2021/11/23 04:44:08;;;;;;;4.62;4.05;;;;;;;14.02;56.09;100032.20;1815275;78;21146;-58
2021/11/23 04:46:35;;;;;;;4.90;4.40;;;;;;;14.02;56.12;100025.53;1818535;78;21022;-58
2021/11/23 04:49:03;;;;;;;5.72;4.80;;;;;;;14.02;56.12;100018.03;1831053;77;21054;-59
2021/11/23 04:51:31;;;;;;;5.25;4.58;;;;;;;14.02;56.10;100012.69;1839659;77;21139;-58
2021/11/23 04:53:58;;;;;;;4.78;3.95;;;;;;;14.01;56.08;100009.19;1835056;77;21088;-57
2021/11/23 04:56:24;;;;;;;5.85;4.12;;;;;;;14.02;56.07;100006.01;1826417;77;21136;-57
2021/11/23 04:58:51;;;;;;;6.17;4.70;;;;;;;14.00;56.04;100002.17;1786038;79;21082;-58
2021/11/23 05:01:17;;;;;;;6.42;4.30;;;;;;;14.00;56.03;100014.72;1747863;80;21063;-59
2021/11/23 05:03:45;;;;;;;5.92;4.50;;;;;;;14.00;56.02;100015.53;1747176;80;21098;-59
2021/11/23 05:06:11;;;;;;;5.55;4.58;;;;;;;13.99;56.00;100015.23;1763916;79;21371;-58
2021/11/23 05:08:39;;;;;;;6.08;4.70;;;;;;;13.99;55.99;100009.88;1754035;80;21173;-58
2021/11/23 05:11:08;;;;;;;5.95;4.37;;;;;;;13.99;56.01;100007.73;1762470;80;21518;-58
2021/11/23 05:13:34;;;;;;;5.12;4.08;;;;;;;13.99;56.00;100017.08;1781186;79;21025;-59
2021/11/23 05:16:00;;;;;;;5.65;4.10;;;;;;;13.97;55.98;100017.25;1753095;80;21049;-58
2021/11/23 05:18:27;;;;;;;6.42;4.97;;;;;;;13.96;55.98;100016.44;1771125;79;21530;-59
2021/11/23 05:20:53;;;;;;;5.42;4.78;;;;;;;13.97;55.93;100011.91;1762358;79;21104;-58
2021/11/23 05:23:20;;;;;;;5.85;5.12;;;;;;;13.96;55.89;100022.26;1769560;79;21049;-60
2021/11/23 05:25:46;;;;;;;6.95;5.33;;;;;;;13.96;55.87;100027.59;1777086;79;20998;-59
2021/11/23 05:28:13;;;;;;;6.15;5.25;;;;;;;13.96;55.82;100034.28;1753987;79;21023;-57
2021/11/23 05:30:39;;;;;;;6.75;5.67;;;;;;;13.95;55.79;100048.15;1774733;79;21106;-59
2021/11/23 05:33:07;;;;;;;7.10;5.67;;;;;;;13.95;55.74;100046.81;1749151;80;21069;-58
2021/11/23 05:35:34;;;;;;;7.05;6.10;;;;;;;13.94;55.73;100043.80;1763350;80;21025;-59
2021/11/23 05:38:00;;;;;;;6.65;5.70;;;;;;;13.94;55.68;100039.80;1772657;79;21032;-59
2021/11/23 05:40:27;;;;;;;9.78;5.42;;;;;;;13.94;55.65;100029.11;1765334;79;21041;-60
2021/11/23 05:42:54;;;;;;;6.75;5.83;;;;;;;13.95;55.70;100088.73;1833305;77;21076;-58
2021/11/23 05:45:20;;;;;;;6.58;5.53;;;;;;;13.94;55.99;100098.55;1833187;77;21145;-59
2021/11/23 05:47:47;;;;;;;6.70;6.00;;;;;;;13.94;55.98;100096.40;1833807;77;21027;-59
2021/11/23 05:50:13;;;;;;;8.93;6.45;;;;;;;13.92;55.91;100105.92;1835502;77;21094;-59
2021/11/23 05:52:40;;;;;;;7.65;6.10;;;;;;;13.91;55.79;100108.80;1822017;77;21579;-59
2021/11/23 05:55:08;;;;;;;7.37;6.00;;;;;;;13.90;55.70;100125.81;1820416;77;20970;-60
2021/11/23 05:57:34;;;;;;;7.72;5.75;;;;;;;13.87;55.57;100140.85;1837645;77;21133;-58
2021/11/23 06:00:02;;;;;;;8.23;6.05;;;;;;;13.84;55.46;100146.06;1831880;77;21037;-59
2021/11/23 06:02:30;;;;;;;7.35;5.97;;;;;;;13.82;55.37;100148.08;1843178;77;21605;-60
2021/11/23 06:04:59;;;;;;;8.45;6.83;;;;;;;13.81;55.26;100152.26;1836422;77;21614;-59
2021/11/23 06:07:26;;;;;;;8.05;6.37;;;;;;;13.78;55.17;100153.45;1815674;77;21051;-59
2021/11/23 06:09:52;;;;;;;7.55;6.37;;;;;;;13.76;55.10;100154.14;1832594;77;23272;-58
2021/11/23 06:12:19;;;;;;;8.38;6.37;;;;;;;13.73;55.03;100158.49;1779803;79;21001;-60
2021/11/23 06:14:46;;;;;;;8.10;6.00;;;;;;;13.71;54.94;100158.70;1776436;79;21053;-60
2021/11/23 06:17:13;;;;;;;8.40;6.08;;;;;;;13.69;54.87;100164.69;1777359;79;21097;-59
2021/11/23 06:19:39;;;;;;;7.47;6.65;;;;;;;13.67;54.79;100161.37;1804954;79;21061;-59
2021/11/23 06:22:07;;;;;;;7.95;6.92;;;;;;;13.66;54.74;100163.73;1768102;80;21037;-61
2021/11/23 06:24:33;;;;;;;7.70;6.67;;;;;;;13.65;54.69;100169.23;1796685;79;21026;-59
2021/11/23 06:27:00;;;;;;;8.43;6.75;;;;;;;13.62;54.63;100168.24;1781520;79;21382;-60
2021/11/23 06:29:26;;;;;;;8.03;6.20;;;;;;;13.61;54.59;100166.59;1797193;79;21014;-60
2021/11/23 06:31:53;;;;;;;9.70;7.15;;;;;;;13.59;54.53;100161.95;1748002;81;21499;-59
2021/11/23 06:34:20;;;;;;;8.50;6.60;;;;;;;13.57;54.49;100163.45;1764012;80;21090;-60
2021/11/23 06:36:46;;;;;;;8.58;6.70;;;;;;;13.56;54.48;100163.14;1762825;80;21522;-59
2021/11/23 06:39:13;;;;;;;7.83;6.50;;;;;;;13.54;54.44;100162.45;1769682;80;21589;-60
2021/11/23 06:41:39;;;;;;;7.17;6.47;;;;;;;13.52;54.41;100169.81;1823159;77;21643;-59
2021/11/23 06:44:08;;;;;;;9.45;7.08;;;;;;;13.50;54.38;100166.48;1819430;77;21068;-58
2021/11/23 06:46:34;;;;;;;8.03;7.10;;;;;;;13.49;54.34;100172.34;1825619;77;21088;-60
2021/11/23 06:49:03;;;;;;;10.10;7.35;;;;;;;13.48;54.31;100174.70;1827472;77;21021;-60
2021/11/23 06:51:30;;;;;;;8.33;6.72;;;;;;;13.47;54.28;100173.54;1833479;77;21364;-60
2021/11/23 06:53:57;;;;;;;9.78;7.42;;;;;;;13.45;54.25;100172.37;1820396;77;21667;-59
2021/11/23 06:56:24;;;;;;;9.10;8.13;;;;;;;13.44;54.23;100174.70;1824194;77;21565;-59
2021/11/23 06:58:50;;;;;;;10.25;7.65;;;;;;;13.42;54.22;100180.72;1816347;77;21096;-59
2021/11/23 07:01:18;;;;;;;8.50;7.12;;;;;;;13.43;54.19;100189.06;1827189;77;21576;-60
2021/11/23 07:03:44;;;;;;;9.03;7.00;;;;;;;13.42;54.18;100184.72;1818532;77;21029;-59
2021/11/23 07:06:11;;;;;;;7.85;7.03;;;;;;;13.41;54.16;100185.75;1769238;79;21038;-59
2021/11/23 07:08:37;;;;;;;9.40;7.78;;;;;;;13.41;54.14;100183.08;1785859;79;21085;-59
2021/11/23 07:11:06;;;;;;;9.43;7.87;;;;;;;13.41;54.14;100180.41;1783576;79;21110;-58
2021/11/23 07:13:34;;;;;;;9.60;7.78;;;;;;;13.40;54.10;100176.06;1797803;79;21042;-60
2021/11/23 07:16:03;;;;;;;10.38;7.62;;;;;;;13.40;54.11;100175.23;1781217;79;21062;-59
2021/11/23 07:18:30;;;;;;;8.28;7.37;;;;;;;13.39;54.11;100181.09;1763498;79;21046;-59
2021/11/23 07:20:56;;;;;;;8.63;7.25;;;;;;;13.40;54.10;100183.25;1771184;80;21066;-59
2021/11/23 07:23:23;;;;;;;9.33;7.50;;;;;;;13.39;54.10;100184.27;1770717;79;21042;-60
2021/11/23 07:25:50;;;;;;;9.03;7.97;;;;;;;13.39;54.06;100190.42;1778597;79;21085;-59
2021/11/23 07:28:17;;;;;;;8.75;6.90;;;;;;;13.40;54.05;100189.91;1772544;80;21749;-59
2021/11/23 07:30:45;;;;;;;8.93;7.40;;;;;;;13.40;54.04;100194.73;1767087;80;21089;-59
2021/11/23 07:33:11;;;;;;;9.95;7.10;;;;;;;13.40;54.03;100198.74;1767004;79;22105;-59
2021/11/23 07:35:38;;;;;;;11.05;7.55;;;;;;;13.41;54.01;100193.75;1780373;79;21155;-60
2021/11/23 07:38:04;;;;;;;10.45;8.13;;;;;;;13.42;54.00;100187.91;1755515;79;21011;-59
2021/11/23 07:40:32;;;;;;;8.95;7.55;;;;;;;13.42;53.98;100184.72;1790927;79;21030;-60
2021/11/23 07:42:59;;;;;;;7.90;6.92;;;;;;;13.43;53.98;100182.39;1793631;79;21050;-60
2021/11/23 07:45:26;;;;;;;12.25;8.03;;;;;;;13.44;53.98;100182.70;1791563;79;21687;-59
2021/11/23 07:47:52;;;;;;;9.03;6.83;;;;;;;13.45;53.97;100177.71;1761971;79;22337;-60
2021/11/23 07:50:19;;;;;;;8.40;7.05;;;;;;;13.47;53.96;100177.54;1767644;79;21560;-61
2021/11/23 07:52:46;;;;;;;8.13;7.30;;;;;;;13.46;54.10;100171.38;1810076;78;20999;-61
2021/11/23 07:55:12;;;;;;;9.00;6.95;;;;;;;13.47;54.13;100177.03;1783167;78;20997;-60
2021/11/23 07:57:39;;;;;;;9.13;7.45;;;;;;;13.48;54.15;100177.37;1814732;78;20989;-60
2021/11/23 08:00:08;;;;;;;9.23;7.25;;;;;;;13.49;54.13;100175.02;1815985;78;21133;-60
2021/11/23 08:02:36;;;;;;;8.18;6.92;;;;;;;13.49;54.10;100168.34;1814356;78;21041;-59
2021/11/23 08:05:04;;;;;;;7.72;6.92;;;;;;;13.50;54.09;100170.02;1818545;78;21077;-60
2021/11/23 08:07:32;;;;;;;8.75;7.30;;;;;;;13.52;54.07;100172.00;1821945;78;21085;-60
2021/11/23 08:09:58;;;;;;;8.88;6.17;;;;;;;13.54;54.05;100175.80;1827668;78;21027;-60
2021/11/23 08:12:24;;;;;;;8.48;6.17;;;;;;;13.55;53.97;100175.63;1829725;78;21039;-60
2021/11/23 08:14:51;;;;;;;8.20;7.22;;;;;;;13.59;53.94;100179.30;1823413;78;21089;-59
2021/11/23 08:17:18;;;;;;;7.45;6.58;;;;;;;13.62;53.91;100174.44;1818930;78;21047;-60
2021/11/23 08:19:44;;;;;;;7.75;6.62;;;;;;;13.66;53.85;100178.92;1825742;78;20986;-60
2021/11/23 08:22:11;;;;;;;7.70;6.35;;;;;;;13.68;53.80;100168.38;1805377;78;21043;-60
2021/11/23 08:24:38;;;;;;;8.80;6.53;;;;;;;13.71;53.74;100164.03;1817593;78;21104;-59
2021/11/23 08:27:05;;;;;;;8.20;6.22;;;;;;;13.76;53.70;100163.48;1811728;78;21014;-59
2021/11/23 08:29:32;;;;;;;7.72;6.72;;;;;;;13.80;53.68;100156.78;1773947;80;21068;-59
2021/11/23 08:31:59;;;;;;;7.08;5.97;;;;;;;13.85;53.68;100158.41;1821235;78;21078;-59
2021/11/23 08:34:27;;;;;;;9.05;6.83;;;;;;;13.88;53.66;100157.22;1820204;78;21001;-60
2021/11/23 08:38:08;;;;;;;7.12;6.42;;;;;;;13.95;53.66;100156.32;1805465;78;21141;-60
2021/11/23 08:40:38;;;;;;;8.58;6.37;;;;;;;13.98;53.64;100163.13;1810688;78;22347;-60
2021/11/23 08:43:06;;;;;;;8.50;6.25;;;;;;;14.00;53.65;100162.95;1818302;78;21630;-62
2021/11/23 08:45:33;;;;;;;7.05;6.15;;;;;;;14.02;53.66;100159.60;1819310;78;21030;-60
2021/11/23 08:48:00;;;;;;;8.20;5.67;;;;;;;14.03;53.69;100165.28;1824604;78;21021;-60
2021/11/23 08:50:27;;;;;;;6.75;6.05;;;;;;;14.04;53.63;100163.77;1826352;77;21273;-61
2021/11/23 08:52:58;;;;;;;7.12;6.33;;;;;;;14.04;53.61;100153.57;1824889;77;20970;-60
2021/11/23 08:55:26;;;;;;;6.90;5.58;;;;;;;14.05;53.52;100160.59;1835102;77;21049;-60
2021/11/23 08:57:53;;;;;;;6.58;5.90;;;;;;;14.05;53.48;100153.91;1825755;77;21046;-59
2021/11/23 09:00:21;;;;;;;6.72;5.85;;;;;;;14.04;53.45;100155.76;1826700;77;21502;-60
2021/11/23 09:02:51;;;;;;;8.73;6.00;;;;;;;14.04;53.42;100147.74;1839778;77;21868;-59
2021/11/23 09:05:20;;;;;;;6.62;5.72;;;;;;;14.05;53.39;100145.90;1834475;77;21057;-58
2021/11/23 09:07:46;;;;;;;7.17;6.05;;;;;;;14.03;53.37;100148.73;1830555;77;21108;-60
2021/11/23 09:10:19;;;;;;;6.62;5.55;;;;;;;14.02;53.34;100143.57;1827397;77;21049;-60
2021/11/23 09:12:48;;;;;;;7.35;6.30;;;;;;;14.01;53.31;100140.08;1823913;77;21232;-60
2021/11/23 09:15:15;;;;;;;5.90;5.30;;;;;;;13.99;53.26;100139.43;1830008;77;21112;-60
2021/11/23 09:17:43;;;;;;;7.62;6.15;;;;;;;13.99;53.26;100139.95;1827863;77;21033;-60
2021/11/23 09:20:11;;;;;;;6.45;5.37;;;;;;;13.98;53.22;100141.77;1839293;77;21068;-61
2021/11/23 09:22:40;;;;;;;6.78;5.60;;;;;;;13.97;53.18;100132.11;1835596;77;21478;-60
2021/11/23 09:25:08;;;;;;;5.62;5.03;;;;;;;13.97;53.17;100138.78;1828268;77;21057;-59
2021/11/23 09:27:35;;;;;;;6.67;5.55;;;;;;;13.96;53.14;100138.45;1828611;77;21075;-60
2021/11/23 09:30:02;;;;;;;6.78;5.53;;;;;;;13.95;53.08;100142.97;1831806;77;21008;-60
2021/11/23 09:32:28;;;;;;;6.60;5.65;;;;;;;13.95;53.06;100141.63;1831705;77;21288;-61
2021/11/23 09:34:56;;;;;;;6.05;5.33;;;;;;;13.94;53.04;100136.46;1825859;76;21576;-61
2021/11/23 09:37:23;;;;;;;5.90;5.22;;;;;;;13.93;52.99;100132.97;1834031;77;21089;-61
2021/11/23 09:39:51;;;;;;;6.10;5.10;;;;;;;13.92;52.96;100141.98;1830647;77;21140;-60
2021/11/23 09:42:18;;;;;;;6.10;5.00;;;;;;;13.91;52.93;100141.67;1833053;77;21454;-60
2021/11/23 09:44:46;;;;;;;6.10;5.17;;;;;;;13.90;52.90;100138.66;1828863;77;21025;-61
2021/11/23 09:47:13;;;;;;;6.65;5.40;;;;;;;13.91;52.87;100141.67;1826099;77;21050;-61
2021/11/23 09:49:40;;;;;;;5.72;5.12;;;;;;;13.89;52.85;100133.52;1812104;77;21094;-61
2021/11/23 09:52:07;;;;;;;7.83;5.72;;;;;;;13.88;52.82;100134.00;1800193;78;21136;-60
2021/11/23 09:54:34;;;;;;;6.28;5.47;;;;;;;13.87;52.79;100125.69;1804236;78;21042;-60
2021/11/23 09:57:01;;;;;;;6.58;5.28;;;;;;;13.87;52.75;100116.81;1811216;78;21052;-61
2021/11/23 09:59:27;;;;;;;5.55;5.05;;;;;;;13.87;52.71;100124.34;1802133;78;21034;-61
2021/11/23 10:01:59;;;;;;;5.67;4.67;;;;;;;13.85;52.69;100119.70;1806731;78;22019;-59
2021/11/23 10:04:27;;;;;;;4.78;4.28;;;;;;;13.85;52.68;100122.36;1808322;78;21194;-60
2021/11/23 10:07:07;;;;;;;5.50;4.85;;;;;;;13.86;52.65;100113.33;1807763;78;20992;-61
2021/11/23 10:09:41;;;;;;;6.95;5.08;;;;;;;13.85;52.61;100106.34;1800245;78;21052;-59
2021/11/23 10:12:24;;;;;;;5.58;4.92;;;;;;;13.86;52.59;100115.17;1803793;78;21044;-61
2021/11/23 10:15:23;;;;;;;6.33;4.70;;;;;;;13.85;52.58;100112.16;1807386;77;21091;-60
2021/11/23 10:17:52;;;;;;;6.25;5.05;;;;;;;13.83;52.56;100103.02;1806210;77;21877;-60
2021/11/23 10:20:32;;;;;;;6.25;4.47;;;;;;;13.83;52.52;100103.02;1802484;77;21107;-61
2021/11/23 10:23:33;;;;;;;5.28;4.72;;;;;;;13.83;52.51;100102.17;1741140;80;21516;-61
2021/11/23 10:26:19;;;;;;;4.92;4.35;;;;;;;13.84;52.48;100103.33;1723249;81;21635;-60
2021/11/23 10:28:55;;;;;;;5.55;4.95;;;;;;;13.84;52.45;100097.17;1734120;80;21112;-59
2021/11/23 10:31:26;;;;;;;6.47;5.12;;;;;;;13.83;52.44;100095.02;1731740;81;21777;-59
2021/11/23 10:34:00;;;;;;;5.15;4.60;;;;;;;13.83;52.43;100092.83;1768426;80;21044;-60
2021/11/23 10:36:37;;;;;;;5.20;4.70;;;;;;;13.83;52.39;100087.00;1772895;80;21032;-59
2021/11/23 10:39:09;;;;;;;5.25;4.47;;;;;;;13.83;52.35;100076.80;1742810;81;21575;-59
2021/11/23 10:41:36;;;;;;;7.03;5.12;;;;;;;13.82;52.31;100082.66;1767877;80;21030;-59
2021/11/23 10:44:05;;;;;;;5.55;4.85;;;;;;;13.82;52.28;100079.16;1806311;78;21091;-60
2021/11/23 10:46:32;;;;;;;6.50;4.65;;;;;;;13.81;52.29;100075.67;1801908;78;21029;-60
2021/11/23 10:49:01;;;;;;;5.40;4.35;;;;;;;13.82;52.25;100078.66;1805489;78;21100;-60
2021/11/23 10:51:38;;;;;;;6.42;4.83;;;;;;;13.83;52.21;100072.80;1825467;77;21022;-60
2021/11/23 10:54:12;;;;;;;5.15;4.65;;;;;;;13.82;52.17;100069.30;1846421;77;20990;-60
2021/11/23 10:57:04;;;;;;;5.42;4.20;;;;;;;13.82;52.16;100064.48;1819465;77;21063;-58
2021/11/23 10:59:36;;;;;;;5.03;4.35;;;;;;;13.82;52.11;100066.63;1818295;77;21557;-60
2021/11/23 11:02:02;;;;;;;5.10;4.45;;;;;;;13.83;52.08;100064.78;1831923;77;21529;-59
2021/11/23 11:04:33;;;;;;;4.70;4.20;;;;;;;13.83;52.05;100068.31;1833394;77;21064;-60
2021/11/23 11:07:00;;;;;;;4.65;4.20;;;;;;;13.83;52.03;100061.63;1834698;77;21517;-59
2021/11/23 11:09:28;;;;;;;5.67;4.67;;;;;;;13.84;52.00;100065.95;1826170;77;21610;-64
2021/11/23 11:11:55;;;;;;;4.78;4.28;;;;;;;13.84;51.94;100065.95;1826939;77;21569;-60
2021/11/23 11:14:21;;;;;;;4.83;4.08;;;;;;;13.85;51.91;100058.75;1820916;77;21041;-59
2021/11/23 11:16:49;;;;;;;6.35;4.80;;;;;;;13.85;51.86;100056.94;1831296;77;21585;-61
2021/11/23 11:19:16;;;;;;;5.50;4.58;;;;;;;13.85;51.86;100045.41;1824481;77;21010;-61
2021/11/23 11:21:52;;;;;;;4.70;4.20;;;;;;;13.85;51.80;100042.73;1767656;80;21053;-62
2021/11/23 11:24:35;;;;;;;5.58;3.92;;;;;;;13.84;51.79;100036.57;1834440;77;21028;-61
2021/11/23 11:27:10;;;;;;;4.95;4.05;;;;;;;13.84;51.75;100037.91;1838311;77;20966;-60
2021/11/23 11:29:29;;;;;;;5.10;4.05;;;;;;;13.85;51.72;100040.91;1824062;77;21076;-62